Terminal Aerodrome Forecast
Issued by NWS Corpus Christi, TX

Home | Current Version | Previous Version | Text Only | Print | Product List | Glossary On
Versions: 1 2 3 4 5 6 7 8 9 10 11 12 13 14 15 16 17 18
000
FTUS44 KCRP 251120
TAFCRP
TAF
KCRP 251120Z 2512/2612 04006KT P6SM SCT025 BKN150
      TEMPO 2512/2515 BKN025
     FM251500 06008KT P6SM VCTS BKN025CB BKN150
      TEMPO 2515/2519 4SM TSRA BKN018CB
     FM251900 09010KT P6SM VCTS BKN030CB BKN150
      TEMPO 2519/2523 5SM TSRA OVC025CB
     FM260000 09012G18KT P6SM SCT040 BKN150
     FM260300 10008KT P6SM SCT020 BKN250 PROB30 2604/2608 5SM -SHRA
      BKN020
     FM260800 11008KT P6SM VCTS BKN020CB
      TEMPO 2608/2612 4SM TSRA BKN015CB=

USA.gov is the U.S. government's official web portal to all federal, state and local government web resources and services.